createdAt,value
2023-01-26T00:00:25.092Z,0.16
2023-01-26T00:02:55.504Z,0.14
2023-01-26T00:05:26.739Z,0.06
2023-01-26T00:07:55.643Z,0.12
2023-01-26T00:10:26.055Z,0.15
2023-01-26T00:12:55.565Z,0.13
2023-01-26T00:15:25.631Z,0.11
2023-01-26T00:17:56.529Z,0.09
2023-01-26T00:20:27.915Z,0.10
2023-01-26T00:22:56.952Z,0.09
2023-01-26T00:25:27.795Z,0.06
2023-01-26T00:27:58.463Z,0.03
2023-01-26T00:30:27.344Z,0.00
2023-01-26T00:32:58.637Z,0.02
2023-01-26T00:35:28.582Z,0.05
2023-01-26T00:37:58.151Z,0.06
2023-01-26T00:40:29.087Z,-0.01
2023-01-26T00:42:59.327Z,-0.03
2023-01-26T00:45:29.642Z,-0.01
2023-01-26T00:48:02.222Z,0.00
2023-01-26T00:50:32.286Z,0.02
2023-01-26T00:53:01.247Z,-0.02
2023-01-26T00:55:32.554Z,-0.01
2023-01-26T00:58:01.196Z,-0.08
2023-01-26T01:00:29.800Z,-0.11
2023-01-26T01:03:02.553Z,-0.09
2023-01-26T01:05:34.441Z,-0.06
2023-01-26T01:08:05.159Z,-0.08
2023-01-26T01:10:36.192Z,-0.12
2023-01-26T01:13:05.645Z,-0.13
2023-01-26T01:15:35.599Z,-0.10
2023-01-26T01:18:06.790Z,-0.12
2023-01-26T01:20:36.305Z,-0.12
2023-01-26T01:23:05.369Z,-0.15
2023-01-26T01:25:36.179Z,-0.10
2023-01-26T01:28:06.132Z,-0.13
2023-01-26T01:30:35.590Z,-0.16
2023-01-26T01:33:07.866Z,-0.14
2023-01-26T01:35:37.828Z,-0.07
2023-01-26T01:38:08.027Z,-0.04
2023-01-26T01:40:37.081Z,-0.03
2023-01-26T01:43:14.529Z,0.01
2023-01-26T01:45:47.422Z,0.02
2023-01-26T01:48:26.970Z,0.01
2023-01-26T01:51:01.991Z,-0.09
2023-01-26T01:53:38.181Z,-0.10
2023-01-26T01:56:16.306Z,-0.04
2023-01-26T01:58:47.012Z,-0.03
2023-01-26T02:01:16.453Z,0.02
2023-01-26T02:03:51.541Z,0.02
2023-01-26T02:06:27.655Z,-0.06
2023-01-26T02:08:59.842Z,-0.09
2023-01-26T02:11:36.707Z,-0.07
2023-01-26T02:14:11.890Z,-0.15
2023-01-26T02:16:41.567Z,-0.08
2023-01-26T02:19:25.132Z,-0.06
2023-01-26T02:21:59.162Z,-0.03
2023-01-26T02:24:36.538Z,-0.07
2023-01-26T02:27:08.183Z,-0.08
2023-01-26T02:29:38.896Z,-0.10
2023-01-26T02:32:08.806Z,-0.16
2023-01-26T02:34:38.728Z,-0.21
2023-01-26T02:37:15.228Z,-0.16
2023-01-26T02:39:55.460Z,-0.21
2023-01-26T02:42:44.996Z,-0.20
2023-01-26T02:45:17.711Z,-0.14
2023-01-26T02:47:47.738Z,-0.21
2023-01-26T02:50:17.493Z,-0.24
2023-01-26T02:52:47.473Z,-0.24
2023-01-26T02:55:25.693Z,-0.17
2023-01-26T02:57:59.493Z,-0.11
2023-01-26T03:00:31.467Z,-0.11
2023-01-26T03:03:04.028Z,-0.16
2023-01-26T03:05:34.091Z,-0.14
2023-01-26T03:08:06.099Z,-0.14
2023-01-26T03:10:36.248Z,-0.12
2023-01-26T03:13:07.258Z,-0.09
2023-01-26T03:15:43.535Z,-0.06
2023-01-26T03:18:48.668Z,-0.01
2023-01-26T03:21:36.534Z,0.03
2023-01-26T03:24:24.286Z,0.00
2023-01-26T03:27:11.280Z,0.01
2023-01-26T03:29:42.594Z,0.00
2023-01-26T03:32:12.776Z,0.00
2023-01-26T03:34:41.156Z,0.02
2023-01-26T03:37:10.645Z,0.03
2023-01-26T03:39:56.880Z,0.04
2023-01-26T03:42:43.850Z,0.05
2023-01-26T03:45:33.838Z,0.03
2023-01-26T03:48:25.015Z,0.04
2023-01-26T03:51:11.057Z,0.02
2023-01-26T03:53:57.185Z,0.02
2023-01-26T03:56:33.129Z,0.02
2023-01-26T03:59:09.711Z,0.06
2023-01-26T04:01:43.084Z,0.07
2023-01-26T04:04:31.954Z,0.07
2023-01-26T04:07:19.330Z,0.09
2023-01-26T04:09:49.709Z,0.10
2023-01-26T04:12:19.550Z,0.13
2023-01-26T04:15:06.093Z,0.11
2023-01-26T04:17:53.986Z,0.12
2023-01-26T04:20:40.984Z,0.10
2023-01-26T04:23:20.526Z,0.10
2023-01-26T04:25:49.559Z,0.06
2023-01-26T04:28:18.987Z,0.05
2023-01-26T04:30:48.467Z,0.07
2023-01-26T04:33:19.522Z,0.08
2023-01-26T04:35:48.465Z,0.03
2023-01-26T04:38:18.271Z,-0.04
2023-01-26T04:40:54.768Z,-0.05
2023-01-26T04:43:24.812Z,-0.13
2023-01-26T04:46:02.771Z,-0.09
2023-01-26T04:48:34.395Z,-0.11
2023-01-26T04:51:06.772Z,-0.08
2023-01-26T04:53:36.493Z,-0.07
2023-01-26T04:56:09.121Z,-0.04
2023-01-26T04:58:38.935Z,-0.01
2023-01-26T05:01:09.710Z,-0.02
2023-01-26T05:03:41.489Z,-0.01
2023-01-26T05:06:10.817Z,-0.01
2023-01-26T05:08:40.843Z,0.00
2023-01-26T05:11:09.628Z,-0.03
2023-01-26T05:13:39.631Z,-0.03
2023-01-26T05:16:09.459Z,-0.02
2023-01-26T05:18:40.912Z,-0.03
2023-01-26T05:21:11.752Z,-0.02
2023-01-26T05:23:41.984Z,-0.05
2023-01-26T05:26:10.633Z,-0.07
2023-01-26T05:28:39.150Z,-0.09
2023-01-26T05:31:08.807Z,-0.07
2023-01-26T05:33:37.279Z,-0.08
2023-01-26T05:36:11.062Z,-0.12
2023-01-26T05:38:40.487Z,-0.09
2023-01-26T05:41:09.897Z,-0.10
2023-01-26T05:43:40.576Z,-0.07
2023-01-26T05:46:11.249Z,-0.10
2023-01-26T05:48:40.788Z,-0.06
2023-01-26T05:51:12.499Z,-0.06
2023-01-26T05:53:41.449Z,-0.04
2023-01-26T05:56:10.117Z,-0.01
2023-01-26T05:58:40.196Z,0.02
2023-01-26T06:01:10.544Z,0.01
2023-01-26T06:03:41.608Z,0.00
2023-01-26T06:06:12.476Z,-0.08
2023-01-26T06:08:41.905Z,-0.06
2023-01-26T06:11:11.993Z,-0.05
2023-01-26T06:13:41.133Z,-0.03
2023-01-26T06:16:10.763Z,-0.05
2023-01-26T06:18:39.738Z,-0.09
2023-01-26T06:21:11.562Z,-0.17
2023-01-26T06:23:40.978Z,-0.14
2023-01-26T06:26:11.037Z,-0.13
2023-01-26T06:28:41.006Z,-0.10
2023-01-26T06:31:10.850Z,-0.08
2023-01-26T06:33:40.783Z,-0.08
2023-01-26T06:36:14.976Z,-0.09
2023-01-26T06:38:50.988Z,-0.11
2023-01-26T06:41:20.939Z,-0.13
2023-01-26T06:43:51.060Z,-0.13
2023-01-26T06:46:20.894Z,-0.08
2023-01-26T06:48:50.970Z,-0.12
2023-01-26T06:51:58.241Z,-0.17
2023-01-26T06:54:28.364Z,-0.16
2023-01-26T06:56:56.874Z,-0.15
2023-01-26T06:59:26.368Z,-0.17
2023-01-26T07:01:56.474Z,-0.22
2023-01-26T07:04:28.121Z,-0.25
2023-01-26T07:06:59.396Z,-0.31
2023-01-26T07:09:31.271Z,-0.35
2023-01-26T07:12:01.153Z,-0.34
2023-01-26T07:14:33.135Z,-0.42
2023-01-26T07:17:03.667Z,-0.45
2023-01-26T07:19:34.762Z,-0.54
2023-01-26T07:22:06.669Z,-0.66
2023-01-26T07:24:37.175Z,-0.60
2023-01-26T07:27:07.982Z,-0.59
2023-01-26T07:29:38.040Z,-0.53
2023-01-26T07:32:08.625Z,-0.60
2023-01-26T07:34:38.201Z,-0.65
2023-01-26T07:37:08.621Z,-0.62
2023-01-26T07:39:38.268Z,-0.59
2023-01-26T07:42:07.279Z,-0.57
2023-01-26T07:44:37.154Z,-0.53
2023-01-26T07:47:06.841Z,-0.56
2023-01-26T07:49:37.577Z,-0.59
2023-01-26T07:52:10.768Z,-0.60
2023-01-26T07:54:40.167Z,-0.60
2023-01-26T07:57:10.427Z,-0.65
2023-01-26T07:59:40.085Z,-0.60
2023-01-26T08:02:10.917Z,-0.57
2023-01-26T08:04:40.807Z,-0.60
2023-01-26T08:07:11.283Z,-0.57
2023-01-26T08:09:39.889Z,-0.58
2023-01-26T08:12:09.433Z,-0.55
2023-01-26T08:14:46.706Z,-0.61
2023-01-26T08:17:18.018Z,-0.64
2023-01-26T08:19:47.594Z,-0.63
2023-01-26T08:22:20.117Z,-0.54
2023-01-26T08:24:50.783Z,-0.49
2023-01-26T08:27:20.538Z,-0.45
2023-01-26T08:29:51.979Z,-0.44
2023-01-26T08:32:20.401Z,-0.42
2023-01-26T08:34:50.924Z,-0.42
2023-01-26T08:37:22.062Z,-0.45
2023-01-26T08:39:51.061Z,-0.44
2023-01-26T08:42:22.773Z,-0.43
2023-01-26T08:44:53.528Z,-0.43
2023-01-26T08:47:23.571Z,-0.42
2023-01-26T08:49:54.026Z,-0.42
2023-01-26T08:52:26.524Z,-0.42
2023-01-26T08:54:56.468Z,-0.42
2023-01-26T08:57:26.987Z,-0.38
2023-01-26T08:59:56.442Z,-0.37
2023-01-26T09:02:26.585Z,-0.37
2023-01-26T09:04:55.776Z,-0.34
2023-01-26T09:07:27.918Z,-0.47
2023-01-26T09:09:58.223Z,-0.39
2023-01-26T09:12:27.762Z,-0.39
2023-01-26T09:14:57.837Z,-0.34
2023-01-26T09:17:26.928Z,-0.32
2023-01-26T09:19:57.214Z,-0.31
2023-01-26T09:22:28.219Z,-0.29
2023-01-26T09:24:58.319Z,-0.29
2023-01-26T09:27:28.510Z,-0.32
2023-01-26T09:29:58.411Z,-0.37
2023-01-26T09:32:28.127Z,-0.34
2023-01-26T09:34:57.859Z,-0.34
2023-01-26T09:37:28.438Z,-0.30
2023-01-26T09:39:58.606Z,-0.27
2023-01-26T09:42:47.132Z,-0.33
2023-01-26T09:45:33.138Z,-0.37
2023-01-26T09:48:25.520Z,-0.39
2023-01-26T09:51:04.709Z,-0.33
2023-01-26T09:53:47.838Z,-0.33
2023-01-26T09:56:23.529Z,-0.32
2023-01-26T09:59:01.838Z,-0.35
2023-01-26T10:01:41.753Z,-0.29
2023-01-26T10:04:29.512Z,-0.26
2023-01-26T10:07:00.584Z,-0.24
2023-01-26T10:09:38.761Z,-0.23
2023-01-26T10:12:18.550Z,-0.22
2023-01-26T10:14:57.207Z,-0.26
2023-01-26T10:17:35.123Z,-0.23
2023-01-26T10:20:11.325Z,-0.35
2023-01-26T10:22:47.943Z,-0.43
2023-01-26T10:25:25.483Z,-0.44
2023-01-26T10:27:54.643Z,-0.43
2023-01-26T10:30:24.470Z,-0.38
2023-01-26T10:32:55.407Z,-0.39
2023-01-26T10:35:27.818Z,-0.44
2023-01-26T10:37:58.619Z,-0.49
2023-01-26T10:40:29.497Z,-0.40
2023-01-26T10:43:00.967Z,-0.32
2023-01-26T10:45:33.774Z,-0.34
2023-01-26T10:48:08.222Z,-0.36
2023-01-26T10:50:37.923Z,-0.35
2023-01-26T10:53:08.089Z,-0.31
2023-01-26T10:55:39.739Z,-0.31
2023-01-26T10:58:45.432Z,-0.33
2023-01-26T11:01:17.179Z,-0.25
2023-01-26T11:04:07.681Z,-0.20
2023-01-26T11:06:36.982Z,-0.18
2023-01-26T11:09:20.890Z,-0.16
2023-01-26T11:12:03.094Z,-0.08
2023-01-26T11:14:35.522Z,-0.02
2023-01-26T11:17:21.137Z,0.02
2023-01-26T11:20:09.277Z,0.03
2023-01-26T11:22:49.900Z,0.05
2023-01-26T11:25:27.925Z,0.05
2023-01-26T11:28:28.385Z,0.05
2023-01-26T11:31:16.520Z,0.01
2023-01-26T11:34:04.463Z,0.04
2023-01-26T11:36:50.089Z,-0.06
2023-01-26T11:39:32.168Z,0.01
2023-01-26T11:42:22.595Z,0.08
2023-01-26T11:45:29.908Z,0.12
2023-01-26T11:48:21.774Z,0.13
2023-01-26T11:51:05.515Z,0.15
2023-01-26T11:54:00.950Z,0.22
2023-01-26T11:56:45.431Z,0.25
2023-01-26T11:59:23.664Z,0.28
2023-01-26T12:02:02.938Z,0.32
2023-01-26T12:04:40.090Z,0.31
2023-01-26T12:07:21.604Z,0.33
2023-01-26T12:09:53.508Z,0.40
2023-01-26T12:12:39.283Z,0.44
2023-01-26T12:15:17.102Z,0.46
2023-01-26T12:18:00.843Z,0.49
2023-01-26T12:20:40.791Z,0.52
2023-01-26T12:23:26.146Z,0.53
2023-01-26T12:26:01.920Z,0.58
2023-01-26T12:28:39.274Z,0.60
2023-01-26T12:31:20.287Z,0.64
2023-01-26T12:33:56.192Z,0.61
2023-01-26T12:36:48.335Z,0.63
2023-01-26T12:39:31.364Z,0.67
2023-01-26T12:42:23.829Z,0.71
2023-01-26T12:45:00.687Z,0.75
2023-01-26T12:47:36.864Z,0.77
2023-01-26T12:50:22.292Z,0.82
2023-01-26T12:52:58.489Z,0.81
2023-01-26T12:55:36.222Z,0.82
2023-01-26T12:58:14.011Z,0.82
2023-01-26T13:00:55.672Z,0.88
2023-01-26T13:03:31.312Z,0.90
2023-01-26T13:06:19.542Z,0.95
2023-01-26T13:09:05.081Z,1.03
2023-01-26T13:11:51.516Z,1.05
2023-01-26T13:14:39.074Z,1.02
2023-01-26T13:17:59.856Z,1.09
2023-01-26T13:20:54.037Z,1.10
2023-01-26T13:23:57.058Z,1.11
2023-01-26T13:26:55.024Z,1.19
2023-01-26T13:29:35.941Z,1.26
2023-01-26T13:33:03.385Z,1.30
2023-01-26T13:35:34.699Z,1.28
2023-01-26T13:38:23.716Z,1.33
2023-01-26T13:40:55.056Z,1.33
2023-01-26T13:43:38.792Z,1.38
2023-01-26T13:46:20.405Z,1.39
2023-01-26T13:48:51.515Z,1.38
2023-01-26T13:51:25.180Z,1.38
2023-01-26T13:54:04.159Z,1.40
2023-01-26T13:56:37.970Z,1.34
2023-01-26T13:59:12.060Z,1.39
2023-01-26T14:01:48.146Z,1.40
2023-01-26T14:04:22.033Z,1.40
2023-01-26T14:06:57.881Z,1.36
2023-01-26T14:09:32.063Z,1.37
2023-01-26T14:12:06.254Z,1.40
2023-01-26T14:14:39.351Z,1.41
2023-01-26T14:17:26.526Z,1.40
2023-01-26T14:19:56.571Z,1.44
2023-01-26T14:22:26.219Z,1.39
2023-01-26T14:24:56.363Z,1.41
2023-01-26T14:27:39.525Z,1.41
2023-01-26T14:30:28.402Z,1.39
2023-01-26T14:33:06.333Z,1.39
2023-01-26T14:35:37.316Z,1.32
2023-01-26T14:38:16.281Z,1.32
2023-01-26T14:40:50.035Z,1.35
2023-01-26T14:43:20.618Z,1.40
2023-01-26T14:46:00.203Z,1.39
2023-01-26T14:48:38.653Z,1.43
2023-01-26T14:51:18.255Z,1.41
2023-01-26T14:53:53.741Z,1.42
2023-01-26T14:56:33.088Z,1.37
2023-01-26T14:59:05.319Z,1.39
2023-01-26T15:01:35.132Z,1.39
2023-01-26T15:04:24.963Z,1.34
2023-01-26T15:06:54.021Z,1.39
2023-01-26T15:09:29.305Z,1.40
2023-01-26T15:12:19.912Z,1.42
2023-01-26T15:14:58.876Z,1.35
2023-01-26T15:17:40.929Z,1.34
2023-01-26T15:20:41.659Z,1.36
2023-01-26T15:23:27.172Z,1.40
2023-01-26T15:25:56.403Z,1.42
2023-01-26T15:28:27.740Z,1.45
2023-01-26T15:30:59.677Z,1.47
2023-01-26T15:33:59.216Z,1.47
2023-01-26T15:36:51.187Z,1.46
2023-01-26T15:39:22.194Z,1.46
2023-01-26T15:42:15.105Z,1.49
2023-01-26T15:44:44.025Z,1.45
2023-01-26T15:47:16.125Z,1.43
2023-01-26T15:49:45.827Z,1.45
2023-01-26T15:52:18.401Z,1.44
2023-01-26T15:54:47.777Z,1.45
2023-01-26T15:57:17.184Z,1.45
2023-01-26T15:59:47.023Z,1.42
2023-01-26T16:02:20.310Z,1.44
2023-01-26T16:04:50.142Z,1.45
2023-01-26T16:07:20.540Z,1.45
2023-01-26T16:09:51.639Z,1.48
2023-01-26T16:12:35.975Z,1.47
2023-01-26T16:15:24.631Z,1.41
2023-01-26T16:17:55.552Z,1.40
2023-01-26T16:20:24.620Z,1.38
2023-01-26T16:22:55.385Z,1.35
2023-01-26T16:25:28.745Z,1.32
2023-01-26T16:27:59.835Z,1.33
2023-01-26T16:30:30.140Z,1.35
2023-01-26T16:33:01.036Z,1.37
2023-01-26T16:35:31.347Z,1.41
2023-01-26T16:38:00.647Z,1.35
2023-01-26T16:40:30.641Z,1.34
2023-01-26T16:43:00.930Z,1.34
2023-01-26T16:45:30.586Z,1.33
2023-01-26T16:48:02.543Z,1.31
2023-01-26T16:50:32.045Z,1.32
2023-01-26T16:53:08.637Z,1.30
2023-01-26T16:55:37.141Z,1.26
2023-01-26T16:58:06.220Z,1.28
2023-01-26T17:00:37.125Z,1.28
2023-01-26T17:03:10.695Z,1.26
2023-01-26T17:05:41.002Z,1.22
2023-01-26T17:08:11.534Z,1.22
2023-01-26T17:10:55.517Z,1.26
2023-01-26T17:13:29.314Z,1.22
2023-01-26T17:16:00.309Z,1.25
2023-01-26T17:18:33.464Z,1.28
2023-01-26T17:21:05.118Z,1.32
2023-01-26T17:23:35.256Z,1.28
2023-01-26T17:26:04.505Z,1.30
2023-01-26T17:28:33.487Z,1.32
2023-01-26T17:31:02.457Z,1.29
2023-01-26T17:33:33.847Z,1.30
2023-01-26T17:36:04.026Z,1.28
2023-01-26T17:38:32.935Z,1.30
2023-01-26T17:41:02.937Z,1.28
2023-01-26T17:43:32.700Z,1.25
2023-01-26T17:46:06.932Z,1.21
2023-01-26T17:48:39.424Z,1.27
2023-01-26T17:51:10.938Z,1.29
2023-01-26T17:53:40.620Z,1.31
2023-01-26T17:56:12.486Z,1.32
2023-01-26T17:58:41.666Z,1.34
2023-01-26T18:01:12.498Z,1.33
2023-01-26T18:03:45.141Z,1.34
2023-01-26T18:06:14.681Z,1.35
2023-01-26T18:08:44.100Z,1.35
2023-01-26T18:11:16.822Z,1.37
2023-01-26T18:13:46.848Z,1.35
2023-01-26T18:16:20.407Z,1.34
2023-01-26T18:18:55.633Z,1.34
2023-01-26T18:21:28.101Z,1.36
2023-01-26T18:24:00.624Z,1.38
2023-01-26T18:26:34.673Z,1.39
2023-01-26T18:29:05.361Z,1.39
2023-01-26T18:31:41.524Z,1.40
2023-01-26T18:34:14.179Z,1.40
2023-01-26T18:36:43.334Z,1.41
2023-01-26T18:39:17.403Z,1.41
2023-01-26T18:41:46.472Z,1.43
2023-01-26T18:44:15.964Z,1.42
2023-01-26T18:46:44.978Z,1.43
2023-01-26T18:49:15.286Z,1.43
2023-01-26T18:51:48.021Z,1.46
2023-01-26T18:54:18.463Z,1.44
2023-01-26T18:56:48.595Z,1.47
2023-01-26T18:59:18.860Z,1.47
2023-01-26T19:01:48.506Z,1.50
2023-01-26T19:04:19.213Z,1.52
2023-01-26T19:06:49.212Z,1.53
2023-01-26T19:09:18.241Z,1.51
2023-01-26T19:11:47.840Z,1.53
2023-01-26T19:14:17.908Z,1.55
2023-01-26T19:16:49.596Z,1.55
2023-01-26T19:19:20.227Z,1.55
2023-01-26T19:21:49.254Z,1.57
2023-01-26T19:24:19.038Z,1.58
2023-01-26T19:26:48.031Z,1.57
2023-01-26T19:29:18.821Z,1.56
2023-01-26T19:31:48.871Z,1.57
2023-01-26T19:34:19.684Z,1.59
2023-01-26T19:36:49.717Z,1.60
2023-01-26T19:39:19.661Z,1.61
2023-01-26T19:41:48.094Z,1.61
2023-01-26T19:44:18.652Z,1.62
2023-01-26T19:46:50.821Z,1.63
2023-01-26T19:49:21.503Z,1.64
2023-01-26T19:51:50.417Z,1.63
2023-01-26T19:54:20.255Z,1.63
2023-01-26T19:56:52.067Z,1.64
2023-01-26T19:59:22.536Z,1.65
2023-01-26T20:01:52.051Z,1.68
2023-01-26T20:04:22.600Z,1.68
2023-01-26T20:06:51.159Z,1.68
2023-01-26T20:09:20.148Z,1.70
2023-01-26T20:11:53.383Z,1.70
2023-01-26T20:14:22.446Z,1.71
2023-01-26T20:16:51.481Z,1.74
2023-01-26T20:19:22.773Z,1.74
2023-01-26T20:21:51.778Z,1.73
2023-01-26T20:24:21.129Z,1.73
2023-01-26T20:26:50.508Z,1.75
2023-01-26T20:29:22.228Z,1.77
2023-01-26T20:31:52.360Z,1.76
2023-01-26T20:34:23.414Z,1.78
2023-01-26T20:36:54.629Z,1.78
2023-01-26T20:39:25.827Z,1.79
2023-01-26T20:41:56.034Z,1.80
2023-01-26T20:44:25.587Z,1.81
2023-01-26T20:46:54.707Z,1.81
2023-01-26T20:49:24.517Z,1.81
2023-01-26T20:51:54.534Z,1.81
2023-01-26T20:54:23.962Z,1.85
2023-01-26T20:56:53.613Z,1.84
2023-01-26T20:59:23.120Z,1.85
2023-01-26T21:01:52.313Z,1.86
2023-01-26T21:04:21.386Z,1.88
2023-01-26T21:06:54.885Z,1.89
2023-01-26T21:09:23.451Z,1.89
2023-01-26T21:11:53.204Z,1.90
2023-01-26T21:14:21.633Z,1.91
2023-01-26T21:16:51.246Z,1.93
2023-01-26T21:19:21.902Z,1.90
2023-01-26T21:21:51.721Z,1.89
2023-01-26T21:24:21.733Z,1.93
2023-01-26T21:26:52.175Z,1.92
2023-01-26T21:29:21.703Z,1.95
2023-01-26T21:31:52.759Z,1.96
2023-01-26T21:34:22.746Z,1.96
2023-01-26T21:36:54.425Z,1.95
2023-01-26T21:39:26.253Z,1.96
2023-01-26T21:41:59.595Z,1.98
2023-01-26T21:44:30.843Z,1.96
2023-01-26T21:47:03.603Z,1.97
2023-01-26T21:49:32.462Z,1.99
2023-01-26T21:52:19.720Z,1.99
2023-01-26T21:54:49.715Z,1.98
2023-01-26T21:57:35.625Z,1.98
2023-01-26T22:00:06.810Z,1.99
2023-01-26T22:02:36.834Z,2.00
2023-01-26T22:05:09.392Z,2.01
2023-01-26T22:07:40.112Z,2.03
2023-01-26T22:10:14.857Z,2.03
2023-01-26T22:12:44.680Z,2.05
2023-01-26T22:15:15.039Z,2.05
2023-01-26T22:17:45.015Z,2.07
2023-01-26T22:20:15.019Z,2.07
2023-01-26T22:22:44.972Z,2.07
2023-01-26T22:25:15.240Z,2.09
2023-01-26T22:27:45.494Z,2.07
2023-01-26T22:30:17.008Z,2.07
2023-01-26T22:32:47.185Z,2.08
2023-01-26T22:35:17.829Z,2.07
2023-01-26T22:37:48.230Z,2.08
2023-01-26T22:40:18.392Z,2.08
2023-01-26T22:42:47.310Z,2.09
2023-01-26T22:45:17.482Z,2.10
2023-01-26T22:47:47.115Z,2.11
2023-01-26T22:50:16.970Z,2.12
2023-01-26T22:52:47.947Z,2.11
2023-01-26T22:55:18.520Z,2.11
2023-01-26T22:57:48.723Z,2.14
2023-01-26T23:00:19.011Z,2.14
2023-01-26T23:02:48.022Z,2.14
2023-01-26T23:05:17.092Z,2.14
2023-01-26T23:07:49.136Z,2.14
2023-01-26T23:10:19.664Z,2.14
2023-01-26T23:12:50.188Z,2.14
2023-01-26T23:15:19.306Z,2.15
2023-01-26T23:17:51.494Z,2.17
2023-01-26T23:20:22.085Z,2.16
2023-01-26T23:22:52.956Z,2.17
2023-01-26T23:25:39.848Z,2.18
2023-01-26T23:28:09.843Z,2.18
2023-01-26T23:30:39.344Z,2.18
2023-01-26T23:33:09.329Z,2.18
2023-01-26T23:35:38.743Z,2.17
2023-01-26T23:38:10.408Z,2.21
2023-01-26T23:40:40.822Z,2.20
2023-01-26T23:43:16.908Z,2.21
2023-01-26T23:45:49.156Z,2.22
2023-01-26T23:48:19.289Z,2.21
2023-01-26T23:50:48.937Z,2.22
2023-01-26T23:53:20.250Z,2.21
2023-01-26T23:55:50.635Z,2.22
2023-01-26T23:58:20.007Z,2.24
